sensor_id;sensor_type;location;lat;lon;timestamp;pressure;altitude;pressure_sealevel;temperature
49593;BMP280;35499;51.482;4.264;2023-05-10T00:01:14;100876.47;;;13.71
49593;BMP280;35499;51.482;4.264;2023-05-10T00:03:40;100876.59;;;13.66
49593;BMP280;35499;51.482;4.264;2023-05-10T00:06:05;100877.56;;;13.62
49593;BMP280;35499;51.482;4.264;2023-05-10T00:08:30;100876.81;;;13.58
49593;BMP280;35499;51.482;4.264;2023-05-10T00:10:56;100880.38;;;13.54
49593;BMP280;35499;51.482;4.264;2023-05-10T00:13:22;100879.66;;;13.47
49593;BMP280;35499;51.482;4.264;2023-05-10T00:15:47;100874.63;;;13.43
49593;BMP280;35499;51.482;4.264;2023-05-10T00:18:12;100870.47;;;13.38
49593;BMP280;35499;51.482;4.264;2023-05-10T00:20:38;100875.72;;;13.35
49593;BMP280;35499;51.482;4.264;2023-05-10T00:23:03;100881.78;;;13.32
49593;BMP280;35499;51.482;4.264;2023-05-10T00:25:28;100879.22;;;13.31
49593;BMP280;35499;51.482;4.264;2023-05-10T00:27:54;100878.44;;;13.29
49593;BMP280;35499;51.482;4.264;2023-05-10T00:30:20;100883.63;;;13.27
49593;BMP280;35499;51.482;4.264;2023-05-10T00:32:45;100883.63;;;13.27
49593;BMP280;35499;51.482;4.264;2023-05-10T00:35:13;100875.03;;;13.27
49593;BMP280;35499;51.482;4.264;2023-05-10T00:37:38;100881.00;;;13.29
49593;BMP280;35499;51.482;4.264;2023-05-10T00:40:04;100877.59;;;13.28
49593;BMP280;35499;51.482;4.264;2023-05-10T00:42:30;100880.94;;;13.30
49593;BMP280;35499;51.482;4.264;2023-05-10T00:44:55;100878.31;;;13.33
49593;BMP280;35499;51.482;4.264;2023-05-10T00:47:21;100882.47;;;13.39
49593;BMP280;35499;51.482;4.264;2023-05-10T00:49:47;100888.44;;;13.41
49593;BMP280;35499;51.482;4.264;2023-05-10T00:52:12;100879.81;;;13.42
49593;BMP280;35499;51.482;4.264;2023-05-10T00:54:38;100882.38;;;13.43
49593;BMP280;35499;51.482;4.264;2023-05-10T00:57:03;100876.38;;;13.41
49593;BMP280;35499;51.482;4.264;2023-05-10T00:59:29;100885.81;;;13.42
49593;BMP280;35499;51.482;4.264;2023-05-10T01:01:54;100892.72;;;13.42
49593;BMP280;35499;51.482;4.264;2023-05-10T01:04:20;100891.09;;;13.38
49593;BMP280;35499;51.482;4.264;2023-05-10T01:06:51;100892.94;;;13.33
49593;BMP280;35499;51.482;4.264;2023-05-10T01:09:16;100904.22;;;13.29
49593;BMP280;35499;51.482;4.264;2023-05-10T01:11:43;100907.72;;;13.25
49593;BMP280;35499;51.482;4.264;2023-05-10T01:14:09;100915.47;;;13.25
49593;BMP280;35499;51.482;4.264;2023-05-10T01:16:37;100915.41;;;13.28
49593;BMP280;35499;51.482;4.264;2023-05-10T01:19:05;100917.91;;;13.31
49593;BMP280;35499;51.482;4.264;2023-05-10T01:40:39;100912.47;;;13.42
49593;BMP280;35499;51.482;4.264;2023-05-10T01:43:10;100914.13;;;13.45
49593;BMP280;35499;51.482;4.264;2023-05-10T01:45:52;100924.44;;;13.45
49593;BMP280;35499;51.482;4.264;2023-05-10T01:48:19;100933.03;;;13.45
49593;BMP280;35499;51.482;4.264;2023-05-10T01:50:46;100930.56;;;13.41
49593;BMP280;35499;51.482;4.264;2023-05-10T01:53:17;100927.13;;;13.41
49593;BMP280;35499;51.482;4.264;2023-05-10T01:55:52;100926.25;;;13.42
49593;BMP280;35499;51.482;4.264;2023-05-10T01:58:31;100938.28;;;13.42
49593;BMP280;35499;51.482;4.264;2023-05-10T02:01:00;100934.00;;;13.40
49593;BMP280;35499;51.482;4.264;2023-05-10T02:03:26;100931.41;;;13.42
49593;BMP280;35499;51.482;4.264;2023-05-10T02:05:54;100932.28;;;13.41
49593;BMP280;35499;51.482;4.264;2023-05-10T02:08:21;100934.88;;;13.41
49593;BMP280;35499;51.482;4.264;2023-05-10T02:10:49;100936.66;;;13.39
49593;BMP280;35499;51.482;4.264;2023-05-10T02:13:15;100934.09;;;13.37
49593;BMP280;35499;51.482;4.264;2023-05-10T02:15:42;100933.25;;;13.37
49593;BMP280;35499;51.482;4.264;2023-05-10T02:18:09;100935.84;;;13.35
49593;BMP280;35499;51.482;4.264;2023-05-10T02:20:36;100935.03;;;13.35
49593;BMP280;35499;51.482;4.264;2023-05-10T02:23:03;100939.34;;;13.34
49593;BMP280;35499;51.482;4.264;2023-05-10T02:25:29;100945.34;;;13.35
49593;BMP280;35499;51.482;4.264;2023-05-10T02:27:56;100944.50;;;13.34
49593;BMP280;35499;51.482;4.264;2023-05-10T02:30:23;100953.09;;;13.35
49593;BMP280;35499;51.482;4.264;2023-05-10T02:32:49;100943.66;;;13.34
49593;BMP280;35499;51.482;4.264;2023-05-10T02:35:16;100951.38;;;13.34
49593;BMP280;35499;51.482;4.264;2023-05-10T02:37:41;100959.03;;;13.37
49593;BMP280;35499;51.482;4.264;2023-05-10T02:40:08;100952.91;;;13.41
49593;BMP280;35499;51.482;4.264;2023-05-10T02:42:37;100960.66;;;13.41
49593;BMP280;35499;51.482;4.264;2023-05-10T02:45:07;100953.75;;;13.42
49593;BMP280;35499;51.482;4.264;2023-05-10T02:47:33;100955.50;;;13.41
49593;BMP280;35499;51.482;4.264;2023-05-10T02:49:59;100960.66;;;13.41
49593;BMP280;35499;51.482;4.264;2023-05-10T02:52:27;100960.66;;;13.41
49593;BMP280;35499;51.482;4.264;2023-05-10T02:54:56;100963.22;;;13.42
49593;BMP280;35499;51.482;4.264;2023-05-10T02:57:26;100965.78;;;13.43
49593;BMP280;35499;51.482;4.264;2023-05-10T02:59:52;100958.91;;;13.42
49593;BMP280;35499;51.482;4.264;2023-05-10T03:02:17;100959.81;;;13.40
49593;BMP280;35499;51.482;4.264;2023-05-10T03:04:43;100964.19;;;13.37
49593;BMP280;35499;51.482;4.264;2023-05-10T03:07:08;100961.59;;;13.38
49593;BMP280;35499;51.482;4.264;2023-05-10T03:09:34;100967.59;;;13.39
49593;BMP280;35499;51.482;4.264;2023-05-10T03:15:36;100959.81;;;13.40
49593;BMP280;35499;51.482;4.264;2023-05-10T03:18:13;100964.97;;;13.40
49593;BMP280;35499;51.482;4.264;2023-05-10T03:20:47;100964.97;;;13.40
49593;BMP280;35499;51.482;4.264;2023-05-10T03:23:26;100970.97;;;13.41
49593;BMP280;35499;51.482;4.264;2023-05-10T03:25:52;100967.66;;;13.36
49593;BMP280;35499;51.482;4.264;2023-05-10T03:28:18;100969.38;;;13.35
49593;BMP280;35499;51.482;4.264;2023-05-10T03:30:45;100971.16;;;13.35
49593;BMP280;35499;51.482;4.264;2023-05-10T03:33:11;100971.16;;;13.35
49593;BMP280;35499;51.482;4.264;2023-05-10T03:35:37;100977.97;;;13.36
49593;BMP280;35499;51.482;4.264;2023-05-10T03:38:03;100981.47;;;13.35
49593;BMP280;35499;51.482;4.264;2023-05-10T03:40:28;100978.81;;;13.36
49593;BMP280;35499;51.482;4.264;2023-05-10T03:43:00;100978.81;;;13.36
49593;BMP280;35499;51.482;4.264;2023-05-10T03:45:25;100986.53;;;13.38
49593;BMP280;35499;51.482;4.264;2023-05-10T03:47:51;100979.66;;;13.38
49593;BMP280;35499;51.482;4.264;2023-05-10T03:50:16;100971.91;;;13.38
49593;BMP280;35499;51.482;4.264;2023-05-10T03:52:42;100977.94;;;13.39
49593;BMP280;35499;51.482;4.264;2023-05-10T03:55:07;100983.13;;;13.36
49593;BMP280;35499;51.482;4.264;2023-05-10T03:57:33;100983.13;;;13.36
49593;BMP280;35499;51.482;4.264;2023-05-10T03:59:59;100986.63;;;13.35
49593;BMP280;35499;51.482;4.264;2023-05-10T04:02:24;100988.38;;;13.33
49593;BMP280;35499;51.482;4.264;2023-05-10T04:04:50;100989.28;;;13.30
49593;BMP280;35499;51.482;4.264;2023-05-10T04:07:15;100994.50;;;13.29
49593;BMP280;35499;51.482;4.264;2023-05-10T04:09:41;101001.38;;;13.28
49593;BMP280;35499;51.482;4.264;2023-05-10T04:12:06;100995.38;;;13.28
49593;BMP280;35499;51.482;4.264;2023-05-10T04:14:32;101003.94;;;13.30
49593;BMP280;35499;51.482;4.264;2023-05-10T04:16:57;100997.88;;;13.31
49593;BMP280;35499;51.482;4.264;2023-05-10T04:19:22;100999.56;;;13.32
49593;BMP280;35499;51.482;4.264;2023-05-10T04:21:48;100997.00;;;13.32
49593;BMP280;35499;51.482;4.264;2023-05-10T04:24:13;100995.25;;;13.34
49593;BMP280;35499;51.482;4.264;2023-05-10T04:26:38;100996.97;;;13.33
49593;BMP280;35499;51.482;4.264;2023-05-10T04:29:04;100995.28;;;13.31
49593;BMP280;35499;51.482;4.264;2023-05-10T04:31:29;100998.00;;;13.25
49593;BMP280;35499;51.482;4.264;2023-05-10T04:33:54;101000.63;;;13.24
49593;BMP280;35499;51.482;4.264;2023-05-10T04:36:19;101010.94;;;13.24
49593;BMP280;35499;51.482;4.264;2023-05-10T04:38:45;100992.03;;;13.23
49593;BMP280;35499;51.482;4.264;2023-05-10T04:41:10;100992.09;;;13.20
49593;BMP280;35499;51.482;4.264;2023-05-10T04:43:37;101001.63;;;13.18
49593;BMP280;35499;51.482;4.264;2023-05-10T04:46:03;101003.34;;;13.18
49593;BMP280;35499;51.482;4.264;2023-05-10T04:48:28;101005.09;;;13.16
49593;BMP280;35499;51.482;4.264;2023-05-10T04:50:53;101000.00;;;13.13
49593;BMP280;35499;51.482;4.264;2023-05-10T04:53:19;101010.31;;;13.14
49593;BMP280;35499;51.482;4.264;2023-05-10T04:55:44;100999.03;;;13.18
49593;BMP280;35499;51.482;4.264;2023-05-10T04:58:10;100997.22;;;13.23
49593;BMP280;35499;51.482;4.264;2023-05-10T05:00:35;101002.28;;;13.26
49593;BMP280;35499;51.482;4.264;2023-05-10T05:03:01;101005.69;;;13.28
49593;BMP280;35499;51.482;4.264;2023-05-10T05:05:26;101003.13;;;13.28
49593;BMP280;35499;51.482;4.264;2023-05-10T05:07:51;100998.81;;;13.27
49593;BMP280;35499;51.482;4.264;2023-05-10T05:10:17;101020.22;;;13.30
49593;BMP280;35499;51.482;4.264;2023-05-10T05:12:42;101021.94;;;13.31
49593;BMP280;35499;51.482;4.264;2023-05-10T05:15:08;101015.91;;;13.31
49593;BMP280;35499;51.482;4.264;2023-05-10T05:17:34;101026.25;;;13.31
49593;BMP280;35499;51.482;4.264;2023-05-10T05:19:59;101033.94;;;13.34
49593;BMP280;35499;51.482;4.264;2023-05-10T05:22:25;101036.44;;;13.37
49593;BMP280;35499;51.482;4.264;2023-05-10T05:24:56;101041.59;;;13.37
49593;BMP280;35499;51.482;4.264;2023-05-10T05:27:23;101039.84;;;13.37
49593;BMP280;35499;51.482;4.264;2023-05-10T05:29:53;101040.72;;;13.38
49593;BMP280;35499;51.482;4.264;2023-05-10T05:32:18;101044.91;;;13.42
49593;BMP280;35499;51.482;4.264;2023-05-10T05:34:44;101046.66;;;13.41
49593;BMP280;35499;51.482;4.264;2023-05-10T05:37:17;101052.66;;;13.42
49593;BMP280;35499;51.482;4.264;2023-05-10T05:39:43;101049.13;;;13.45
49593;BMP280;35499;51.482;4.264;2023-05-10T05:42:09;101053.41;;;13.46
49593;BMP280;35499;51.482;4.264;2023-05-10T05:44:35;101058.53;;;13.49
49593;BMP280;35499;51.482;4.264;2023-05-10T05:47:00;101063.59;;;13.52
49593;BMP280;35499;51.482;4.264;2023-05-10T05:49:26;101066.16;;;13.54
49593;BMP280;35499;51.482;4.264;2023-05-10T05:51:51;101064.38;;;13.56
49593;BMP280;35499;51.482;4.264;2023-05-10T05:54:16;101061.69;;;13.60
49593;BMP280;35499;51.482;4.264;2023-05-10T05:56:42;101065.09;;;13.62
49593;BMP280;35499;51.482;4.264;2023-05-10T05:59:07;101065.84;;;13.67
49593;BMP280;35499;51.482;4.264;2023-05-10T06:01:33;101076.00;;;13.74
49593;BMP280;35499;51.482;4.264;2023-05-10T06:03:58;101072.41;;;13.81
49593;BMP280;35499;51.482;4.264;2023-05-10T06:06:23;101071.38;;;13.89
49593;BMP280;35499;51.482;4.264;2023-05-10T06:08:49;101070.19;;;14.00
49593;BMP280;35499;51.482;4.264;2023-05-10T06:11:14;101072.38;;;14.16
49593;BMP280;35499;51.482;4.264;2023-05-10T06:13:39;101072.00;;;14.31
49593;BMP280;35499;51.482;4.264;2023-05-10T06:16:05;101081.16;;;14.44
49593;BMP280;35499;51.482;4.264;2023-05-10T06:18:30;101076.56;;;14.54
49593;BMP280;35499;51.482;4.264;2023-05-10T06:20:56;101072.06;;;14.61
49593;BMP280;35499;51.482;4.264;2023-05-10T06:23:21;101076.97;;;14.69
49593;BMP280;35499;51.482;4.264;2023-05-10T06:25:47;101066.41;;;14.78
49593;BMP280;35499;51.482;4.264;2023-05-10T06:28:12;101068.75;;;14.85
49593;BMP280;35499;51.482;4.264;2023-05-10T06:30:38;101076.41;;;14.91
49593;BMP280;35499;51.482;4.264;2023-05-10T06:33:03;101078.81;;;14.97
49593;BMP280;35499;51.482;4.264;2023-05-10T06:35:28;101077.06;;;14.99
49593;BMP280;35499;51.482;4.264;2023-05-10T06:37:54;101082.13;;;15.02
49593;BMP280;35499;51.482;4.264;2023-05-10T06:40:19;101082.09;;;15.04
49593;BMP280;35499;51.482;4.264;2023-05-10T06:42:45;101084.75;;;15.01
49593;BMP280;35499;51.482;4.264;2023-05-10T06:45:11;101096.09;;;14.95
49593;BMP280;35499;51.482;4.264;2023-05-10T06:47:37;101094.50;;;14.91
49593;BMP280;35499;51.482;4.264;2023-05-10T06:50:03;101101.47;;;14.88
49593;BMP280;35499;51.482;4.264;2023-05-10T06:52:28;101103.25;;;14.85
49593;BMP280;35499;51.482;4.264;2023-05-10T06:54:53;101101.66;;;14.81
49593;BMP280;35499;51.482;4.264;2023-05-10T06:57:19;101096.59;;;14.78
49593;BMP280;35499;51.482;4.264;2023-05-10T06:59:44;101100.03;;;14.78
49593;BMP280;35499;51.482;4.264;2023-05-10T07:02:09;101105.13;;;14.80
49593;BMP280;35499;51.482;4.264;2023-05-10T07:04:35;101101.59;;;14.84
49593;BMP280;35499;51.482;4.264;2023-05-10T07:07:00;101104.91;;;14.88
49593;BMP280;35499;51.482;4.264;2023-05-10T07:09:26;101112.59;;;14.91
49593;BMP280;35499;51.482;4.264;2023-05-10T07:11:51;101109.94;;;14.94
49593;BMP280;35499;51.482;4.264;2023-05-10T07:14:16;101111.63;;;14.95
49593;BMP280;35499;51.482;4.264;2023-05-10T07:16:42;101108.16;;;14.96
49593;BMP280;35499;51.482;4.264;2023-05-10T07:19:07;101117.50;;;15.00
49593;BMP280;35499;51.482;4.264;2023-05-10T07:21:32;101116.56;;;15.04
49593;BMP280;35499;51.482;4.264;2023-05-10T07:23:57;101114.59;;;15.12
49593;BMP280;35499;51.482;4.264;2023-05-10T07:26:23;101106.66;;;15.19
49593;BMP280;35499;51.482;4.264;2023-05-10T07:28:49;101113.16;;;15.32
49593;BMP280;35499;51.482;4.264;2023-05-10T07:31:14;101112.75;;;15.45
49593;BMP280;35499;51.482;4.264;2023-05-10T07:33:40;101106.34;;;15.57
49593;BMP280;35499;51.482;4.264;2023-05-10T07:36:06;101104.91;;;15.75
49593;BMP280;35499;51.482;4.264;2023-05-10T07:38:31;101101.63;;;15.98
49593;BMP280;35499;51.482;4.264;2023-05-10T07:40:56;101112.09;;;16.20
49593;BMP280;35499;51.482;4.264;2023-05-10T07:43:21;101119.13;;;16.42
49593;BMP280;35499;51.482;4.264;2023-05-10T07:45:47;101125.22;;;16.65
49593;BMP280;35499;51.482;4.264;2023-05-10T07:48:12;101116.63;;;16.88
49593;BMP280;35499;51.482;4.264;2023-05-10T07:50:37;101109.94;;;17.29
49593;BMP280;35499;51.482;4.264;2023-05-10T07:53:03;101101.34;;;17.72
49593;BMP280;35499;51.482;4.264;2023-05-10T07:55:28;101113.09;;;18.24
49593;BMP280;35499;51.482;4.264;2023-05-10T07:57:53;101113.53;;;18.54
49593;BMP280;35499;51.482;4.264;2023-05-10T08:00:19;101114.81;;;18.84
49593;BMP280;35499;51.482;4.264;2023-05-10T08:02:46;101110.03;;;19.13
49593;BMP280;35499;51.482;4.264;2023-05-10T08:05:11;101114.72;;;19.43
49593;BMP280;35499;51.482;4.264;2023-05-10T08:07:37;101107.19;;;19.74
49593;BMP280;35499;51.482;4.264;2023-05-10T08:10:03;101109.13;;;19.88
49593;BMP280;35499;51.482;4.264;2023-05-10T08:12:28;101110.00;;;20.23
49593;BMP280;35499;51.482;4.264;2023-05-10T08:14:53;101104.09;;;20.70
49593;BMP280;35499;51.482;4.264;2023-05-10T08:17:19;101100.97;;;21.29
49593;BMP280;35499;51.482;4.264;2023-05-10T08:19:44;101097.50;;;21.75
49593;BMP280;35499;51.482;4.264;2023-05-10T08:22:09;101091.50;;;21.73
49593;BMP280;35499;51.482;4.264;2023-05-10T08:24:35;101103.47;;;21.62
49593;BMP280;35499;51.482;4.264;2023-05-10T08:27:05;101104.94;;;21.35
49593;BMP280;35499;51.482;4.264;2023-05-10T08:29:30;101115.22;;;21.07
49593;BMP280;35499;51.482;4.264;2023-05-10T08:31:56;101116.59;;;20.97
49593;BMP280;35499;51.482;4.264;2023-05-10T08:34:21;101115.09;;;21.41
49593;BMP280;35499;51.482;4.264;2023-05-10T08:36:46;101114.47;;;21.83
49593;BMP280;35499;51.482;4.264;2023-05-10T08:39:12;101114.06;;;22.06
49593;BMP280;35499;51.482;4.264;2023-05-10T08:41:38;101113.81;;;21.95
49593;BMP280;35499;51.482;4.264;2023-05-10T08:44:04;101109.47;;;22.24
49593;BMP280;35499;51.482;4.264;2023-05-10T08:46:31;101121.22;;;22.17
49593;BMP280;35499;51.482;4.264;2023-05-10T08:49:01;101113.63;;;21.98
49593;BMP280;35499;51.482;4.264;2023-05-10T08:51:28;101117.94;;;21.99
49593;BMP280;35499;51.482;4.264;2023-05-10T08:53:55;101116.69;;;22.49
49593;BMP280;35499;51.482;4.264;2023-05-10T08:56:20;101107.66;;;23.26
49593;BMP280;35499;51.482;4.264;2023-05-10T08:58:47;101108.28;;;23.84
49593;BMP280;35499;51.482;4.264;2023-05-10T09:04:33;101097.94;;;25.81
49593;BMP280;35499;51.482;4.264;2023-05-10T09:06:58;101094.66;;;25.43
49593;BMP280;35499;51.482;4.264;2023-05-10T09:09:25;101107.84;;;25.66
49593;BMP280;35499;51.482;4.264;2023-05-10T09:11:51;101101.78;;;26.12
49593;BMP280;35499;51.482;4.264;2023-05-10T09:14:17;101106.59;;;26.64
49593;BMP280;35499;51.482;4.264;2023-05-10T09:16:43;101108.69;;;27.15
49593;BMP280;35499;51.482;4.264;2023-05-10T09:19:08;101103.00;;;26.98
49593;BMP280;35499;51.482;4.264;2023-05-10T09:21:35;101113.25;;;27.13
49593;BMP280;35499;51.482;4.264;2023-05-10T09:24:04;101110.63;;;27.24
49593;BMP280;35499;51.482;4.264;2023-05-10T09:26:30;101105.72;;;27.52
49593;BMP280;35499;51.482;4.264;2023-05-10T09:28:57;101115.91;;;27.56
49593;BMP280;35499;51.482;4.264;2023-05-10T09:31:22;101113.75;;;27.50
49593;BMP280;35499;51.482;4.264;2023-05-10T09:33:50;101115.22;;;27.44
49593;BMP280;35499;51.482;4.264;2023-05-10T09:36:16;101122.53;;;27.29
49593;BMP280;35499;51.482;4.264;2023-05-10T09:38:52;101127.19;;;27.37
49593;BMP280;35499;51.482;4.264;2023-05-10T09:41:22;101120.28;;;27.68
49593;BMP280;35499;51.482;4.264;2023-05-10T09:43:47;101119.50;;;28.19
49593;BMP280;35499;51.482;4.264;2023-05-10T09:46:14;101126.66;;;28.70
49593;BMP280;35499;51.482;4.264;2023-05-10T09:48:43;101125.06;;;29.09
49593;BMP280;35499;51.482;4.264;2023-05-10T09:51:09;101120.22;;;29.33
49593;BMP280;35499;51.482;4.264;2023-05-10T09:53:34;101122.44;;;29.58
49593;BMP280;35499;51.482;4.264;2023-05-10T09:56:00;101116.81;;;29.51
49593;BMP280;35499;51.482;4.264;2023-05-10T09:58:25;101127.16;;;29.34
49593;BMP280;35499;51.482;4.264;2023-05-10T10:00:50;101121.13;;;29.43
49593;BMP280;35499;51.482;4.264;2023-05-10T10:03:19;101116.09;;;29.49
49593;BMP280;35499;51.482;4.264;2023-05-10T10:05:46;101117.22;;;29.47
49593;BMP280;35499;51.482;4.264;2023-05-10T10:08:13;101127.75;;;29.38
49593;BMP280;35499;51.482;4.264;2023-05-10T10:10:39;101117.66;;;29.52
49593;BMP280;35499;51.482;4.264;2023-05-10T10:13:09;101117.53;;;29.53
49593;BMP280;35499;51.482;4.264;2023-05-10T10:15:34;101119.47;;;29.51
49593;BMP280;35499;51.482;4.264;2023-05-10T10:18:00;101120.94;;;29.25
49593;BMP280;35499;51.482;4.264;2023-05-10T10:20:26;101123.16;;;29.20
49593;BMP280;35499;51.482;4.264;2023-05-10T10:22:52;101124.28;;;28.97
49593;BMP280;35499;51.482;4.264;2023-05-10T10:25:18;101125.34;;;28.75
49593;BMP280;35499;51.482;4.264;2023-05-10T10:33:05;101123.44;;;28.25
49593;BMP280;35499;51.482;4.264;2023-05-10T10:35:33;101122.94;;;28.31
49593;BMP280;35499;51.482;4.264;2023-05-10T10:38:00;101127.91;;;28.14
49593;BMP280;35499;51.482;4.264;2023-05-10T10:42:52;101128.41;;;27.76
49593;BMP280;35499;51.482;4.264;2023-05-10T10:45:19;101134.81;;;27.73
49593;BMP280;35499;51.482;4.264;2023-05-10T10:47:45;101131.97;;;28.18
49593;BMP280;35499;51.482;4.264;2023-05-10T10:50:10;101133.81;;;28.58
49593;BMP280;35499;51.482;4.264;2023-05-10T10:52:42;101128.31;;;28.40
49593;BMP280;35499;51.482;4.264;2023-05-10T10:57:57;101120.88;;;28.75
49593;BMP280;35499;51.482;4.264;2023-05-10T11:03:11;101133.63;;;28.40
49593;BMP280;35499;51.482;4.264;2023-05-10T11:05:47;101129.38;;;27.96
49593;BMP280;35499;51.482;4.264;2023-05-10T11:10:39;101137.81;;;27.03
49593;BMP280;35499;51.482;4.264;2023-05-10T11:13:06;101143.38;;;26.65
49593;BMP280;35499;51.482;4.264;2023-05-10T11:15:34;101140.97;;;26.39
49593;BMP280;35499;51.482;4.264;2023-05-10T11:18:00;101147.81;;;26.07
49593;BMP280;35499;51.482;4.264;2023-05-10T11:20:41;101147.22;;;25.79
49593;BMP280;35499;51.482;4.264;2023-05-10T11:23:14;101146.41;;;25.42
49593;BMP280;35499;51.482;4.264;2023-05-10T11:25:47;101141.34;;;25.15
49593;BMP280;35499;51.482;4.264;2023-05-10T11:28:13;101147.81;;;24.97
49593;BMP280;35499;51.482;4.264;2023-05-10T11:30:39;101147.59;;;24.88
49593;BMP280;35499;51.482;4.264;2023-05-10T11:33:06;101156.66;;;24.84
49593;BMP280;35499;51.482;4.264;2023-05-10T11:35:37;101158.56;;;24.94
49593;BMP280;35499;51.482;4.264;2023-05-10T11:38:05;101147.50;;;25.02
49593;BMP280;35499;51.482;4.264;2023-05-10T11:40:30;101153.72;;;25.01
49593;BMP280;35499;51.482;4.264;2023-05-10T11:42:56;101149.06;;;24.92
49593;BMP280;35499;51.482;4.264;2023-05-10T11:45:23;101157.81;;;24.93
49593;BMP280;35499;51.482;4.264;2023-05-10T11:47:49;101151.16;;;24.87
49593;BMP280;35499;51.482;4.264;2023-05-10T11:50:15;101143.69;;;24.69
49593;BMP280;35499;51.482;4.264;2023-05-10T11:52:40;101145.22;;;24.59
49593;BMP280;35499;51.482;4.264;2023-05-10T11:55:06;101153.53;;;24.66
49593;BMP280;35499;51.482;4.264;2023-05-10T11:57:31;101142.44;;;24.75
49593;BMP280;35499;51.482;4.264;2023-05-10T11:59:57;101143.91;;;24.53
49593;BMP280;35499;51.482;4.264;2023-05-10T12:02:23;101145.34;;;24.44
49593;BMP280;35499;51.482;4.264;2023-05-10T12:04:50;101144.91;;;24.38
49593;BMP280;35499;51.482;4.264;2023-05-10T12:07:15;101154.81;;;24.07
49593;BMP280;35499;51.482;4.264;2023-05-10T12:09:44;101155.13;;;23.62
49593;BMP280;35499;51.482;4.264;2023-05-10T12:12:16;101162.81;;;23.24
49593;BMP280;35499;51.482;4.264;2023-05-10T12:14:42;101161.19;;;22.93
49593;BMP280;35499;51.482;4.264;2023-05-10T12:17:11;101158.66;;;22.63
49593;BMP280;35499;51.482;4.264;2023-05-10T12:19:37;101162.81;;;22.37
49593;BMP280;35499;51.482;4.264;2023-05-10T12:22:04;101165.94;;;21.98
49593;BMP280;35499;51.482;4.264;2023-05-10T12:24:30;101170.13;;;21.70
49593;BMP280;35499;51.482;4.264;2023-05-10T12:26:55;101162.72;;;21.46
49593;BMP280;35499;51.482;4.264;2023-05-10T12:29:20;101185.84;;;21.22
49593;BMP280;35499;51.482;4.264;2023-05-10T12:31:53;101184.72;;;20.93
49593;BMP280;35499;51.482;4.264;2023-05-10T12:34:32;101180.41;;;20.75
49593;BMP280;35499;51.482;4.264;2023-05-10T12:37:00;101182.53;;;20.67
49593;BMP280;35499;51.482;4.264;2023-05-10T12:39:25;101186.00;;;20.51
49593;BMP280;35499;51.482;4.264;2023-05-10T12:41:51;101185.88;;;20.36
49593;BMP280;35499;51.482;4.264;2023-05-10T12:44:17;101184.81;;;20.22
49593;BMP280;35499;51.482;4.264;2023-05-10T12:46:42;101181.50;;;20.19
49593;BMP280;35499;51.482;4.264;2023-05-10T12:49:08;101188.47;;;20.18
49593;BMP280;35499;51.482;4.264;2023-05-10T12:51:33;101183.13;;;20.21
49593;BMP280;35499;51.482;4.264;2023-05-10T12:53:58;101183.03;;;20.23
49593;BMP280;35499;51.482;4.264;2023-05-10T12:56:23;101186.56;;;20.22
49593;BMP280;35499;51.482;4.264;2023-05-10T12:58:49;101186.13;;;20.12
49593;BMP280;35499;51.482;4.264;2023-05-10T13:01:14;101186.28;;;20.09
49593;BMP280;35499;51.482;4.264;2023-05-10T13:03:39;101198.69;;;20.05
49593;BMP280;35499;51.482;4.264;2023-05-10T13:06:05;101200.91;;;19.95
49593;BMP280;35499;51.482;4.264;2023-05-10T13:08:31;101202.94;;;19.89
49593;BMP280;35499;51.482;4.264;2023-05-10T13:10:59;101211.09;;;19.82
49593;BMP280;35499;51.482;4.264;2023-05-10T13:13:24;101206.44;;;19.70
49593;BMP280;35499;51.482;4.264;2023-05-10T13:15:50;101208.81;;;19.56
49593;BMP280;35499;51.482;4.264;2023-05-10T13:18:15;101216.53;;;19.38
49593;BMP280;35499;51.482;4.264;2023-05-10T13:20:40;101225.47;;;19.14
49593;BMP280;35499;51.482;4.264;2023-05-10T13:23:06;101222.94;;;18.93
49593;BMP280;35499;51.482;4.264;2023-05-10T13:25:31;101231.44;;;18.77
49593;BMP280;35499;51.482;4.264;2023-05-10T13:27:56;101228.00;;;18.54
49593;BMP280;35499;51.482;4.264;2023-05-10T13:30:22;101233.31;;;18.30
49593;BMP280;35499;51.482;4.264;2023-05-10T13:32:48;101224.03;;;18.02
49593;BMP280;35499;51.482;4.264;2023-05-10T13:35:14;101230.75;;;17.85
49593;BMP280;35499;51.482;4.264;2023-05-10T13:37:39;101233.25;;;17.64
49593;BMP280;35499;51.482;4.264;2023-05-10T13:40:05;101236.56;;;17.45
49593;BMP280;35499;51.482;4.264;2023-05-10T13:42:31;101244.88;;;17.31
49593;BMP280;35499;51.482;4.264;2023-05-10T13:44:59;101241.97;;;17.16
49593;BMP280;35499;51.482;4.264;2023-05-10T13:47:24;101250.38;;;16.98
49593;BMP280;35499;51.482;4.264;2023-05-10T13:49:49;101238.94;;;16.78
49593;BMP280;35499;51.482;4.264;2023-05-10T13:52:14;101253.09;;;16.68
49593;BMP280;35499;51.482;4.264;2023-05-10T13:54:40;101250.88;;;16.57
49593;BMP280;35499;51.482;4.264;2023-05-10T13:57:05;101261.63;;;16.45
49593;BMP280;35499;51.482;4.264;2023-05-10T13:59:31;101260.16;;;16.37
49593;BMP280;35499;51.482;4.264;2023-05-10T14:01:58;101269.19;;;16.24
49593;BMP280;35499;51.482;4.264;2023-05-10T14:04:23;101270.50;;;16.10
49593;BMP280;35499;51.482;4.264;2023-05-10T14:06:49;101269.91;;;16.01
49593;BMP280;35499;51.482;4.264;2023-05-10T14:09:14;101274.47;;;15.92
49593;BMP280;35499;51.482;4.264;2023-05-10T14:11:40;101269.56;;;15.83
49593;BMP280;35499;51.482;4.264;2023-05-10T14:14:08;101277.47;;;15.78
49593;BMP280;35499;51.482;4.264;2023-05-10T14:16:34;101275.91;;;15.73
49593;BMP280;35499;51.482;4.264;2023-05-10T14:18:59;101273.50;;;15.66
49593;BMP280;35499;51.482;4.264;2023-05-10T14:21:24;101268.59;;;15.57
49593;BMP280;35499;51.482;4.264;2023-05-10T14:23:49;101274.75;;;15.53
49593;BMP280;35499;51.482;4.264;2023-05-10T14:26:15;101271.44;;;15.48
49593;BMP280;35499;51.482;4.264;2023-05-10T14:28:40;101270.63;;;15.46
49593;BMP280;35499;51.482;4.264;2023-05-10T14:31:05;101281.84;;;15.45
49593;BMP280;35499;51.482;4.264;2023-05-10T14:33:31;101282.78;;;15.43